Time;durP1;ratioP1;P1;durP2;ratioP2;P2;SDS_P1;SDS_P2;PMS_P1;PMS_P2;Temp;Humidity;BMP_temperature;BMP_pressure;BME280_temperature;BME280_humidity;BME280_pressure;Samples;Min_cycle;Max_cycle;Signal;HPM_P1;HPM_P2
2021/09/02 00:00:00;;;;;;;15.77;14.10;;;13.60;99.90;;;;;;5106653;28;20255;-61
2021/09/02 00:02:27;;;;;;;16.75;14.88;;;13.50;99.90;;;;;;5107671;27;20193;-63
2021/09/02 00:04:54;;;;;;;19.35;13.95;;;13.60;99.90;;;;;;5104604;28;20226;-62
2021/09/02 00:07:21;;;;;;;16.35;13.80;;;13.50;99.90;;;;;;5105544;28;20204;-61
2021/09/02 00:09:49;;;;;;;20.00;14.30;;;13.60;99.90;;;;;;5102156;28;20504;-61
2021/09/02 00:12:17;;;;;;;18.23;15.02;;;13.60;99.90;;;;;;5097941;28;20398;-62
2021/09/02 00:14:44;;;;;;;22.63;17.38;;;13.50;99.90;;;;;;5105198;28;20242;-64
2021/09/02 00:17:11;;;;;;;22.42;17.38;;;13.50;99.90;;;;;;5111272;28;20379;-63
2021/09/02 00:19:39;;;;;;;22.38;17.08;;;13.40;99.90;;;;;;5112541;28;20205;-63
2021/09/02 00:22:06;;;;;;;21.90;17.05;;;13.50;99.90;;;;;;5110074;28;20256;-62
2021/09/02 00:24:33;;;;;;;28.02;19.38;;;13.50;99.90;;;;;;5112543;28;20229;-62
2021/09/02 00:27:00;;;;;;;26.83;18.23;;;13.40;99.90;;;;;;5108668;28;20380;-61
2021/09/02 00:29:27;;;;;;;24.23;18.08;;;13.50;99.90;;;;;;5111391;28;20198;-61
2021/09/02 00:31:54;;;;;;;26.90;18.48;;;13.40;99.90;;;;;;5104199;28;20209;-61
2021/09/02 00:34:21;;;;;;;32.97;20.20;;;13.40;99.90;;;;;;5111686;28;20276;-58
2021/09/02 00:36:48;;;;;;;24.92;19.65;;;13.30;99.90;;;;;;5109477;28;20265;-61
2021/09/02 00:39:15;;;;;;;26.20;20.42;;;13.30;99.90;;;;;;5107302;28;20246;-61
2021/09/02 00:41:42;;;;;;;22.90;20.42;;;13.30;99.90;;;;;;5097041;28;20234;-61
2021/09/02 00:44:09;;;;;;;30.70;21.33;;;13.40;99.90;;;;;;5106333;27;20194;-62
2021/09/02 00:46:36;;;;;;;32.85;23.27;;;13.30;99.90;;;;;;5107630;28;20506;-61
2021/09/02 00:49:03;;;;;;;25.08;21.73;;;13.30;99.90;;;;;;5108337;27;20198;-64
2021/09/02 00:51:30;;;;;;;27.02;21.73;;;13.20;99.90;;;;;;5107961;28;20218;-62
2021/09/02 00:53:57;;;;;;;26.55;19.88;;;13.30;99.90;;;;;;5106904;28;20700;-63
2021/09/02 00:56:26;;;;;;;23.73;20.63;;;13.20;99.90;;;;;;5104470;28;20221;-62
2021/09/02 00:58:53;;;;;;;26.30;20.75;;;13.30;99.90;;;;;;5104904;28;20256;-62
2021/09/02 01:01:21;;;;;;;22.27;19.60;;;13.30;99.90;;;;;;5106600;28;20193;-62
2021/09/02 01:03:49;;;;;;;22.13;18.45;;;13.30;99.90;;;;;;5112542;27;20265;-62
2021/09/02 01:06:17;;;;;;;25.85;18.27;;;13.20;99.90;;;;;;5102546;28;20226;-63
2021/09/02 01:08:45;;;;;;;23.10;17.83;;;13.20;99.90;;;;;;5105098;28;20210;-59
2021/09/02 01:11:13;;;;;;;25.77;18.10;;;13.20;99.90;;;;;;5105421;28;20210;-63
2021/09/02 01:13:40;;;;;;;18.27;16.35;;;13.30;99.90;;;;;;5109525;28;20206;-62
2021/09/02 01:16:07;;;;;;;28.85;19.77;;;13.30;99.90;;;;;;5104973;27;20234;-61
2021/09/02 01:18:34;;;;;;;25.90;19.55;;;13.30;99.90;;;;;;5107115;28;20201;-62
2021/09/02 01:21:03;;;;;;;23.58;18.35;;;13.20;99.90;;;;;;5103267;28;20267;-61
2021/09/02 01:23:40;;;;;;;21.75;18.48;;;13.20;99.90;;;;;;5107183;28;20234;-61
2021/09/02 01:26:22;;;;;;;32.35;18.45;;;13.20;99.90;;;;;;5104843;28;20267;-63
2021/09/02 01:28:50;;;;;;;22.02;17.98;;;13.20;99.90;;;;;;5104869;28;20455;-62
2021/09/02 01:31:21;;;;;;;25.05;17.58;;;13.20;99.90;;;;;;5102034;28;20239;-62
2021/09/02 01:33:49;;;;;;;22.10;17.00;;;13.10;99.90;;;;;;5107633;28;21136;-63
2021/09/02 01:36:17;;;;;;;20.08;16.40;;;13.00;99.90;;;;;;5104041;28;20230;-64
2021/09/02 01:38:45;;;;;;;20.27;17.92;;;13.00;99.90;;;;;;5103673;28;20283;-61
2021/09/02 01:41:13;;;;;;;27.27;18.63;;;13.00;99.90;;;;;;5103898;28;20259;-60
2021/09/02 01:43:40;;;;;;;25.13;17.88;;;13.10;99.90;;;;;;5105518;28;20276;-62
2021/09/02 01:46:07;;;;;;;24.25;19.35;;;13.00;99.90;;;;;;5102187;28;20279;-62
2021/09/02 01:48:35;;;;;;;25.95;21.65;;;13.00;99.90;;;;;;5104335;28;20205;-61
2021/09/02 01:51:03;;;;;;;28.42;20.10;;;13.00;99.90;;;;;;5105862;28;20222;-61
2021/09/02 01:53:30;;;;;;;27.92;20.27;;;12.80;99.90;;;;;;5103960;28;20197;-62
2021/09/02 01:55:57;;;;;;;29.23;21.83;;;12.90;99.90;;;;;;5102852;28;20234;-62
2021/09/02 01:58:24;;;;;;;24.13;19.30;;;12.90;99.90;;;;;;5101488;28;20259;-63
2021/09/02 02:00:51;;;;;;;25.80;20.00;;;12.90;99.90;;;;;;5101668;28;20201;-64
2021/09/02 02:03:18;;;;;;;31.20;21.80;;;12.80;99.90;;;;;;5105291;28;20204;-64
2021/09/02 02:05:45;;;;;;;28.52;20.17;;;12.80;99.90;;;;;;5095216;28;20233;-63
2021/09/02 02:08:16;;;;;;;34.28;19.65;;;12.80;99.90;;;;;;5105213;28;20202;-63
2021/09/02 02:10:44;;;;;;;31.25;18.23;;;12.70;99.90;;;;;;5104869;28;20431;-62
2021/09/02 02:13:11;;;;;;;30.17;21.65;;;12.80;99.90;;;;;;5104232;28;20433;-60
2021/09/02 02:15:38;;;;;;;23.77;17.90;;;12.80;99.90;;;;;;5102607;28;20405;-63
2021/09/02 02:18:05;;;;;;;22.65;18.80;;;12.70;99.90;;;;;;5105051;28;20393;-62
2021/09/02 02:20:32;;;;;;;25.30;19.10;;;12.70;99.90;;;;;;5103790;28;20245;-62
2021/09/02 02:22:59;;;;;;;27.58;18.58;;;12.90;99.90;;;;;;5104507;28;20198;-60
2021/09/02 02:25:27;;;;;;;29.95;19.08;;;13.00;99.90;;;;;;5105517;28;20353;-64
2021/09/02 02:27:54;;;;;;;23.65;18.50;;;13.00;99.90;;;;;;5102296;28;20327;-62
2021/09/02 02:30:22;;;;;;;21.98;17.00;;;12.90;99.90;;;;;;5103733;28;20212;-62
2021/09/02 02:32:49;;;;;;;24.13;18.60;;;12.90;99.90;;;;;;5100232;28;20225;-63
2021/09/02 02:35:18;;;;;;;21.77;19.48;;;12.80;99.90;;;;;;5105808;28;20225;-63
2021/09/02 02:37:45;;;;;;;27.15;19.08;;;12.80;99.90;;;;;;5104377;28;20198;-63
2021/09/02 02:40:13;;;;;;;26.33;20.20;;;12.90;99.90;;;;;;5106402;28;20202;-62
2021/09/02 02:42:40;;;;;;;23.63;18.95;;;12.80;99.90;;;;;;5105929;28;20233;-62
2021/09/02 02:45:08;;;;;;;24.70;18.80;;;12.90;99.90;;;;;;5107209;28;20271;-63
2021/09/02 02:47:35;;;;;;;23.55;19.77;;;12.90;99.90;;;;;;5110224;28;20232;-60
2021/09/02 02:50:03;;;;;;;27.52;19.40;;;12.80;99.90;;;;;;5107720;28;20209;-62
2021/09/02 02:52:30;;;;;;;24.00;19.05;;;12.80;99.90;;;;;;5109061;27;20197;-63
2021/09/02 02:54:57;;;;;;;27.05;18.48;;;13.00;99.90;;;;;;5108241;28;20257;-61
2021/09/02 02:57:25;;;;;;;27.90;17.60;;;13.00;99.90;;;;;;5105708;28;20536;-63
2021/09/02 02:59:52;;;;;;;25.27;19.05;;;12.80;99.90;;;;;;5108506;28;20200;-61
2021/09/02 03:02:19;;;;;;;23.85;18.33;;;12.90;99.90;;;;;;5106838;28;20390;-61
2021/09/02 03:04:46;;;;;;;28.25;19.70;;;12.90;99.90;;;;;;5111645;28;20220;-62
2021/09/02 03:07:13;;;;;;;27.98;19.58;;;12.80;99.90;;;;;;5106662;28;20212;-59
2021/09/02 03:09:40;;;;;;;28.08;18.85;;;12.80;99.90;;;;;;5105746;28;20491;-62
2021/09/02 03:12:07;;;;;;;34.13;20.35;;;12.70;99.90;;;;;;5108617;28;20522;-62
2021/09/02 03:14:34;;;;;;;24.42;19.80;;;12.80;99.90;;;;;;5106455;28;20293;-60
2021/09/02 03:17:01;;;;;;;28.17;21.67;;;12.70;99.90;;;;;;5107754;28;20265;-63
2021/09/02 03:19:28;;;;;;;29.48;22.35;;;12.70;99.90;;;;;;5106802;28;20246;-61
2021/09/02 03:21:55;;;;;;;34.58;20.10;;;12.70;99.90;;;;;;5109042;28;20194;-63
2021/09/02 03:24:22;;;;;;;25.63;19.40;;;12.70;99.90;;;;;;5106733;28;20213;-64
2021/09/02 03:26:49;;;;;;;33.00;23.02;;;12.80;99.90;;;;;;5107371;28;20209;-62
2021/09/02 03:29:16;;;;;;;28.40;20.05;;;12.70;99.90;;;;;;5106615;27;20289;-63
2021/09/02 03:31:43;;;;;;;27.50;20.40;;;12.80;99.90;;;;;;5105412;28;20217;-64
2021/09/02 03:34:10;;;;;;;24.55;20.15;;;12.70;99.90;;;;;;5104863;28;20202;-63
2021/09/02 03:36:37;;;;;;;25.90;18.38;;;12.80;99.90;;;;;;5110446;28;20244;-61
2021/09/02 03:39:04;;;;;;;27.40;19.15;;;12.60;99.90;;;;;;5115616;28;20197;-62
2021/09/02 03:41:31;;;;;;;25.75;18.50;;;12.50;99.90;;;;;;5112515;28;20246;-62
2021/09/02 03:43:58;;;;;;;32.38;20.35;;;12.50;99.90;;;;;;5114277;28;20198;-60
2021/09/02 03:46:25;;;;;;;22.75;18.35;;;12.50;99.90;;;;;;5116190;28;20208;-63
2021/09/02 03:48:52;;;;;;;31.60;17.92;;;12.40;99.90;;;;;;5112774;28;20231;-63
2021/09/02 03:51:19;;;;;;;29.60;19.75;;;12.40;99.90;;;;;;5113506;28;20250;-63
2021/09/02 03:53:46;;;;;;;31.30;20.42;;;12.40;99.90;;;;;;5110128;28;20483;-59
2021/09/02 03:56:13;;;;;;;28.02;18.35;;;12.30;99.90;;;;;;5112413;28;20271;-60
2021/09/02 03:58:40;;;;;;;28.17;18.30;;;12.30;99.90;;;;;;5107686;28;20500;-62
2021/09/02 04:01:07;;;;;;;28.98;19.10;;;12.40;99.90;;;;;;5105502;28;20194;-62
2021/09/02 04:03:34;;;;;;;36.00;19.00;;;12.40;99.90;;;;;;5113433;28;20519;-64
2021/09/02 04:06:02;;;;;;;25.52;17.40;;;12.40;99.90;;;;;;5111397;28;20252;-60
2021/09/02 04:08:29;;;;;;;20.13;17.33;;;12.50;99.90;;;;;;5109067;28;20267;-61
2021/09/02 04:10:56;;;;;;;25.48;19.35;;;12.40;99.90;;;;;;5110847;28;20419;-62
2021/09/02 04:13:23;;;;;;;24.52;18.15;;;12.40;99.90;;;;;;5119523;28;20246;-63
2021/09/02 04:15:50;;;;;;;27.20;18.83;;;12.60;99.90;;;;;;5118978;28;20236;-62
2021/09/02 04:18:18;;;;;;;21.10;17.63;;;12.70;99.90;;;;;;5102612;28;20196;-62
2021/09/02 04:20:45;;;;;;;22.10;17.20;;;12.60;99.90;;;;;;5101413;28;20198;-62
2021/09/02 04:23:12;;;;;;;24.25;17.58;;;12.70;99.90;;;;;;5104258;28;20201;-61
2021/09/02 04:25:39;;;;;;;27.45;18.27;;;12.70;99.90;;;;;;5116870;28;20242;-63
2021/09/02 04:28:06;;;;;;;24.95;16.98;;;12.60;99.90;;;;;;5104335;28;20200;-60
2021/09/02 04:30:33;;;;;;;26.13;18.13;;;12.60;99.90;;;;;;5103505;28;20220;-61
2021/09/02 04:33:03;;;;;;;25.98;18.48;;;12.70;99.90;;;;;;5115188;28;20227;-62
2021/09/02 04:35:30;;;;;;;29.50;18.92;;;12.70;99.90;;;;;;5119205;28;20258;-62
2021/09/02 04:37:57;;;;;;;26.63;18.20;;;12.80;99.90;;;;;;5119931;28;20205;-62
2021/09/02 04:40:24;;;;;;;27.52;18.17;;;12.90;99.90;;;;;;5119607;28;20193;-63
2021/09/02 04:42:51;;;;;;;25.77;18.42;;;13.00;99.90;;;;;;5113556;28;20201;-63
2021/09/02 04:45:19;;;;;;;28.85;19.80;;;13.00;99.90;;;;;;5119820;27;20273;-62
2021/09/02 04:47:46;;;;;;;25.17;20.17;;;13.00;99.90;;;;;;5111290;28;20233;-62
2021/09/02 04:50:13;;;;;;;28.63;19.70;;;13.10;99.90;;;;;;5109015;28;20400;-61
2021/09/02 04:52:40;;;;;;;29.17;18.58;;;13.00;99.90;;;;;;5108420;28;20479;-64
2021/09/02 04:55:10;;;;;;;31.50;21.17;;;13.10;99.90;;;;;;5118120;28;20261;-62
2021/09/02 04:57:38;;;;;;;29.98;19.95;;;13.30;99.90;;;;;;5114672;28;20243;-63
2021/09/02 05:00:06;;;;;;;29.83;20.67;;;13.50;99.90;;;;;;5108021;28;20278;-59
2021/09/02 05:02:33;;;;;;;29.63;18.92;;;13.60;99.90;;;;;;5113182;28;20194;-64
2021/09/02 05:05:00;;;;;;;30.88;19.95;;;13.80;99.90;;;;;;5113531;28;20622;-63
2021/09/02 05:07:27;;;;;;;27.48;21.30;;;13.90;99.90;;;;;;5110465;28;20198;-62
2021/09/02 05:09:54;;;;;;;26.77;20.30;;;13.90;99.90;;;;;;5121539;27;20197;-64
2021/09/02 05:12:21;;;;;;;31.42;22.77;;;14.00;99.90;;;;;;5116373;28;20246;-64
2021/09/02 05:14:48;;;;;;;35.83;25.20;;;13.80;99.90;;;;;;5115077;28;20228;-63
2021/09/02 05:17:15;;;;;;;29.17;22.73;;;13.80;99.90;;;;;;5117320;27;20224;-63
2021/09/02 05:19:42;;;;;;;34.95;27.15;;;13.70;99.90;;;;;;5111679;28;20198;-64
2021/09/02 05:22:09;;;;;;;34.53;26.35;;;13.80;99.90;;;;;;5117746;28;20224;-61
2021/09/02 05:24:36;;;;;;;31.40;23.05;;;13.70;99.90;;;;;;5118716;27;20584;-60
2021/09/02 05:27:05;;;;;;;31.88;23.10;;;13.80;99.90;;;;;;5118486;28;20272;-62
2021/09/02 05:29:33;;;;;;;32.88;22.65;;;13.80;99.90;;;;;;5118668;28;20571;-62
2021/09/02 05:32:00;;;;;;;22.88;20.38;;;13.80;99.90;;;;;;5114217;28;20438;-63
2021/09/02 05:34:27;;;;;;;26.55;21.88;;;13.90;99.90;;;;;;5117052;28;20240;-64
2021/09/02 05:36:54;;;;;;;27.52;20.10;;;13.90;99.90;;;;;;5118808;28;20286;-64
2021/09/02 05:39:21;;;;;;;22.08;18.77;;;14.10;99.90;;;;;;5118389;28;20265;-64
2021/09/02 05:41:48;;;;;;;21.17;16.75;;;14.20;99.90;;;;;;5112735;28;20444;-64
2021/09/02 05:44:16;;;;;;;24.50;16.63;;;14.40;99.90;;;;;;5115009;28;20255;-64
2021/09/02 05:46:44;;;;;;;14.77;13.27;;;14.50;99.90;;;;;;5106153;28;20255;-63
2021/09/02 05:49:11;;;;;;;18.42;12.63;;;14.40;99.90;;;;;;5113489;28;20202;-63
2021/09/02 05:51:38;;;;;;;16.10;12.00;;;14.60;99.90;;;;;;5118794;28;20201;-61
2021/09/02 05:54:05;;;;;;;11.80;10.70;;;14.70;99.90;;;;;;5123404;28;20561;-63
2021/09/02 05:56:32;;;;;;;12.70;11.25;;;14.90;99.90;;;;;;5106077;28;20232;-64
2021/09/02 05:58:59;;;;;;;11.95;10.38;;;15.10;99.90;;;;;;5122550;28;20504;-62
2021/09/02 06:01:26;;;;;;;12.88;9.63;;;15.10;99.90;;;;;;5107316;28;20434;-62
2021/09/02 06:03:53;;;;;;;13.45;9.88;;;15.10;99.90;;;;;;5110128;28;20199;-62
2021/09/02 06:06:20;;;;;;;11.10;9.40;;;15.40;99.90;;;;;;5110002;28;20257;-63
2021/09/02 06:08:47;;;;;;;10.15;9.23;;;15.50;99.90;;;;;;5112920;28;20239;-63
2021/09/02 06:11:14;;;;;;;12.00;9.70;;;15.80;99.90;;;;;;5119193;28;20405;-63
2021/09/02 06:13:41;;;;;;;11.83;8.90;;;16.10;99.90;;;;;;5106766;28;20213;-65
2021/09/02 06:16:08;;;;;;;13.13;8.93;;;16.20;99.90;;;;;;5106061;28;20467;-63
2021/09/02 06:18:35;;;;;;;9.30;7.70;;;16.40;99.90;;;;;;5108631;28;20416;-64
2021/09/02 06:21:03;;;;;;;10.93;8.43;;;16.80;99.90;;;;;;5114323;28;20441;-63
2021/09/02 06:23:30;;;;;;;7.97;7.20;;;17.10;99.90;;;;;;5126510;27;20439;-64
2021/09/02 06:25:57;;;;;;;9.40;7.93;;;17.60;99.90;;;;;;5125196;27;20431;-63
2021/09/02 06:28:24;;;;;;;12.10;9.10;;;18.30;99.90;;;;;;5125508;27;20445;-64
2021/09/02 06:30:51;;;;;;;8.10;7.10;;;19.00;99.90;;;;;;5127384;27;20824;-62
2021/09/02 06:33:18;;;;;;;7.57;6.87;;;19.50;99.90;;;;;;5126767;27;20416;-63
2021/09/02 06:35:45;;;;;;;9.80;6.57;;;20.20;99.90;;;;;;5116633;28;20497;-64
2021/09/02 06:38:12;;;;;;;15.03;8.47;;;20.80;99.90;;;;;;5116395;28;20410;-63
2021/09/02 06:40:39;;;;;;;6.80;6.10;;;21.70;99.90;;;;;;5113952;28;20479;-64
2021/09/02 06:43:06;;;;;;;8.47;7.47;;;22.80;99.90;;;;;;5123418;28;20442;-62
2021/09/02 06:45:33;;;;;;;7.53;6.87;;;24.20;99.90;;;;;;5091523;28;20441;-62
2021/09/02 06:48:00;;;;;;;9.00;8.10;;;24.80;99.90;;;;;;5117056;27;20505;-62
2021/09/02 06:50:27;;;;;;;7.43;6.80;;;25.40;99.90;;;;;;5118453;28;20493;-63
2021/09/02 06:52:54;;;;;;;10.47;9.57;;;25.90;99.90;;;;;;5107803;28;20407;-63
2021/09/02 06:55:22;;;;;;;9.90;9.10;;;26.90;99.90;;;;;;5109885;28;20463;-63
2021/09/02 06:57:49;;;;;;;9.13;8.50;;;27.60;99.90;;;;;;5105130;28;20483;-64
2021/09/02 07:00:16;;;;;;;11.30;10.50;;;28.10;99.20;;;;;;5118014;27;20483;-62
2021/09/02 07:02:43;;;;;;;10.60;9.90;;;28.50;97.10;;;;;;5121579;28;20511;-62
2021/09/02 07:05:11;;;;;;;10.93;9.60;;;27.90;97.00;;;;;;5127652;27;20715;-62
2021/09/02 07:07:38;;;;;;;11.07;9.97;;;27.40;97.90;;;;;;5122226;28;20472;-63
2021/09/02 07:10:06;;;;;;;10.20;9.30;;;27.20;98.90;;;;;;5124571;27;20589;-63
2021/09/02 07:12:33;;;;;;;11.10;10.50;;;28.70;96.70;;;;;;5123435;28;20439;-63
2021/09/02 07:15:00;;;;;;;10.77;10.07;;;29.70;94.30;;;;;;5122224;28;20811;-63
2021/09/02 07:17:28;;;;;;;12.67;11.73;;;30.90;92.00;;;;;;5123255;28;20518;-62
2021/09/02 07:19:55;;;;;;;12.20;11.50;;;31.50;91.20;;;;;;5116232;28;20439;-61
2021/09/02 07:22:22;;;;;;;12.20;11.40;;;31.70;89.20;;;;;;5122558;28;20487;-62
2021/09/02 07:24:49;;;;;;;12.17;11.47;;;31.20;88.90;;;;;;5122091;28;20454;-63
2021/09/02 07:27:16;;;;;;;12.47;11.77;;;31.20;88.70;;;;;;5121995;28;20476;-63
2021/09/02 07:29:43;;;;;;;12.37;11.67;;;31.20;88.60;;;;;;5122157;28;20439;-63
2021/09/02 07:32:10;;;;;;;12.70;11.90;;;32.30;84.60;;;;;;5122055;28;20471;-64
2021/09/02 07:34:37;;;;;;;11.10;10.40;;;33.20;81.40;;;;;;5121959;28;20463;-61
2021/09/02 07:37:04;;;;;;;12.40;11.43;;;31.70;84.00;;;;;;5099668;28;20510;-61
2021/09/02 07:39:31;;;;;;;13.70;12.80;;;31.00;85.90;;;;;;5111883;28;20627;-62
2021/09/02 07:41:58;;;;;;;13.80;13.10;;;31.70;84.00;;;;;;5121435;28;20441;-59
2021/09/02 07:44:25;;;;;;;12.20;11.60;;;32.40;80.90;;;;;;5122403;27;20457;-63
2021/09/02 07:46:52;;;;;;;12.20;11.50;;;33.40;78.20;;;;;;5114067;28;20442;-62
2021/09/02 07:49:20;;;;;;;12.77;11.97;;;33.90;76.80;;;;;;5117951;28;20594;-63
2021/09/02 07:51:46;;;;;;;13.87;12.97;;;33.90;76.00;;;;;;5108582;28;20496;-62
2021/09/02 07:54:13;;;;;;;11.43;10.93;;;34.50;73.80;;;;;;5115465;28;20528;-63
2021/09/02 07:56:41;;;;;;;12.20;11.60;;;33.90;72.60;;;;;;5113348;28;20503;-60
2021/09/02 07:59:08;;;;;;;12.10;11.30;;;33.30;73.10;;;;;;5121821;28;20430;-62
2021/09/02 08:01:35;;;;;;;11.30;10.80;;;33.10;73.50;;;;;;5108214;28;20439;-61
2021/09/02 08:04:03;;;;;;;12.23;11.63;;;34.40;71.90;;;;;;5112731;28;20621;-62
2021/09/02 08:06:30;;;;;;;11.87;11.20;;;34.50;69.60;;;;;;5120549;28;20696;-63
2021/09/02 08:08:57;;;;;;;11.50;10.80;;;34.40;69.20;;;;;;5115411;28;20728;-63
2021/09/02 08:11:28;;;;;;;11.60;10.90;;;34.50;69.30;;;;;;5119565;27;20783;-62
2021/09/02 08:13:55;;;;;;;12.53;11.10;;;35.50;66.20;;;;;;5121149;28;20434;-61
2021/09/02 08:16:24;;;;;;;11.50;11.00;;;36.20;64.70;;;;;;5120380;28;20449;-62
2021/09/02 08:18:52;;;;;;;13.13;12.33;;;35.70;64.20;;;;;;5120847;28;20776;-60
2021/09/02 08:21:19;;;;;;;11.70;10.90;;;35.40;65.20;;;;;;5121854;27;20438;-60
2021/09/02 08:23:46;;;;;;;12.50;11.73;;;35.60;64.30;;;;;;5125776;27;20449;-64
2021/09/02 08:26:13;;;;;;;12.17;11.47;;;35.60;64.80;;;;;;5110800;27;20459;-63
2021/09/02 08:28:40;;;;;;;12.60;11.73;;;35.70;63.90;;;;;;5119065;28;20442;-61
2021/09/02 08:31:08;;;;;;;13.33;12.43;;;34.30;65.60;;;;;;5122408;27;20553;-62
2021/09/02 08:33:35;;;;;;;12.10;11.30;;;33.60;66.50;;;;;;5120655;28;20506;-61
2021/09/02 08:36:02;;;;;;;11.93;11.23;;;34.40;65.70;;;;;;5120240;27;20457;-61
2021/09/02 08:38:29;;;;;;;11.50;10.90;;;34.30;64.90;;;;;;5108121;28;20493;-61
2021/09/02 08:40:56;;;;;;;13.30;12.60;;;34.90;65.20;;;;;;5111937;28;20459;-60
2021/09/02 08:43:24;;;;;;;11.90;11.27;;;35.10;62.20;;;;;;5102067;28;20431;-59
2021/09/02 08:46:13;;;;;;;12.90;12.20;;;34.20;63.80;;;;;;5107352;28;20573;-62
2021/09/02 08:48:45;;;;;;;11.73;11.23;;;33.90;64.80;;;;;;5105502;28;20435;-62
2021/09/02 08:51:13;;;;;;;12.60;11.97;;;33.80;64.70;;;;;;5109581;28;20671;-63
2021/09/02 08:53:42;;;;;;;12.60;12.00;;;33.70;64.40;;;;;;5115055;27;20438;-62
2021/09/02 08:56:09;;;;;;;12.77;12.17;;;33.40;65.20;;;;;;5118974;28;20462;-59
2021/09/02 08:58:40;;;;;;;12.83;12.23;;;34.40;64.00;;;;;;5123814;27;20660;-62
2021/09/02 09:01:10;;;;;;;12.90;12.20;;;33.10;65.70;;;;;;5119512;28;20474;-63
2021/09/02 09:03:38;;;;;;;12.60;12.00;;;32.60;67.30;;;;;;5120114;28;20494;-61
2021/09/02 09:06:08;;;;;;;10.80;10.30;;;32.20;69.00;;;;;;5119235;28;20492;-61
2021/09/02 09:08:41;;;;;;;11.97;11.30;;;33.20;66.50;;;;;;5114432;28;20631;-61
2021/09/02 09:11:28;;;;;;;11.70;11.10;;;33.20;67.20;;;;;;5104064;28;20444;-58
2021/09/02 09:14:14;;;;;;;11.70;10.90;;;32.00;70.40;;;;;;5118233;28;20447;-61
2021/09/02 09:16:52;;;;;;;13.03;12.13;;;31.80;70.30;;;;;;5119093;28;20421;-60
2021/09/02 09:19:40;;;;;;;12.47;11.77;;;31.70;71.00;;;;;;5120360;28;20878;-62
2021/09/02 09:22:10;;;;;;;11.33;10.70;;;29.40;74.90;;;;;;5105811;28;20502;-61
2021/09/02 09:24:55;;;;;;;11.50;10.90;;;28.10;80.80;;;;;;5119043;28;20454;-57
2021/09/02 09:27:50;;;;;;;12.07;11.27;;;27.00;82.70;;;;;;5106981;28;20442;-61
2021/09/02 09:33:29;;;;;;;9.37;8.50;;;24.20;91.50;;;;;;5160469;27;20648;-92
2021/09/02 09:35:56;;;;;;;8.87;8.17;;;23.70;91.60;;;;;;5069491;27;1450881;-93
2021/09/02 09:38:24;;;;;;;8.33;7.83;;;23.30;93.20;;;;;;5141740;27;20452;-91
2021/09/02 09:40:52;;;;;;;8.87;8.27;;;23.20;94.60;;;;;;5132349;27;20456;-90
2021/09/02 09:43:25;;;;;;;8.00;7.40;;;23.20;93.50;;;;;;5113940;28;20480;-90
2021/09/02 09:45:54;;;;;;;8.87;8.20;;;23.60;95.00;;;;;;5138169;28;20438;-90
2021/09/02 09:48:29;;;;;;;9.03;8.30;;;23.90;93.30;;;;;;5133757;27;20747;-90
2021/09/02 09:51:18;;;;;;;8.30;7.70;;;23.60;94.20;;;;;;5130933;28;20425;-89
2021/09/02 09:53:50;;;;;;;7.37;6.80;;;23.70;95.60;;;;;;5123110;28;20600;-93
2021/09/02 09:56:20;;;;;;;8.67;7.93;;;23.60;94.60;;;;;;5128466;28;20559;-90
2021/09/02 09:58:49;;;;;;;7.53;6.83;;;23.50;95.70;;;;;;5115965;28;20431;-89
2021/09/02 10:01:16;;;;;;;7.80;6.63;;;23.30;96.30;;;;;;5105640;28;20429;-91
2021/09/02 10:03:54;;;;;;;7.10;6.63;;;22.70;96.20;;;;;;5127006;28;20433;-91
2021/09/02 10:06:23;;;;;;;7.70;7.03;;;22.40;96.80;;;;;;5141504;28;20429;-88
2021/09/02 10:08:50;;;;;;;7.33;6.70;;;22.70;97.70;;;;;;5113059;28;20436;-90
2021/09/02 10:11:20;;;;;;;7.10;6.60;;;22.80;96.70;;;;;;5123488;28;20641;-89
2021/09/02 10:13:48;;;;;;;8.20;7.50;;;22.90;96.50;;;;;;5122473;28;20768;-89
2021/09/02 10:16:15;;;;;;;7.87;7.27;;;22.50;97.20;;;;;;5130908;27;20439;-90
2021/09/02 10:18:45;;;;;;;7.90;7.20;;;22.20;98.60;;;;;;5135127;27;20461;-89
2021/09/02 10:21:15;;;;;;;6.40;6.00;;;22.30;98.00;;;;;;5134701;27;20645;-89
2021/09/02 10:23:42;;;;;;;6.07;5.67;;;22.50;97.90;;;;;;5108123;28;20731;-90
2021/09/02 10:26:39;;;;;;;6.60;6.10;;;22.50;97.80;;;;;;5121283;28;20425;-90
2021/09/02 10:29:32;;;;;;;8.97;8.07;;;22.60;96.90;;;;;;5105589;28;20439;-88
2021/09/02 10:32:24;;;;;;;6.27;5.83;;;22.70;97.40;;;;;;5121952;28;20449;-90
2021/09/02 10:34:53;;;;;;;8.50;7.07;;;23.00;96.80;;;;;;5111368;28;20446;-87
2021/09/02 10:37:38;;;;;;;7.20;6.70;;;23.30;96.00;;;;;;5132355;28;20770;-87
2021/09/02 10:40:17;;;;;;;8.47;6.87;;;23.20;95.60;;;;;;5140760;28;20474;-91
2021/09/02 10:42:49;;;;;;;6.93;6.43;;;23.10;95.70;;;;;;5119308;28;20443;-90
2021/09/02 10:45:28;;;;;;;7.30;6.63;;;23.20;95.60;;;;;;5103642;27;20422;-88
2021/09/02 10:48:06;;;;;;;7.47;6.90;;;22.70;96.20;;;;;;5101035;28;20449;-91
2021/09/02 10:50:42;;;;;;;7.13;6.63;;;22.30;96.70;;;;;;5095485;28;20750;-91
2021/09/02 10:53:17;;;;;;;7.03;6.43;;;22.30;98.40;;;;;;5108084;28;20433;-90
2021/09/02 10:55:51;;;;;;;6.80;6.30;;;22.60;97.80;;;;;;5097280;28;20637;-90
2021/09/02 10:58:38;;;;;;;7.33;6.73;;;22.90;97.20;;;;;;5118756;28;20417;-88
2021/09/02 11:01:31;;;;;;;7.07;6.57;;;23.00;97.00;;;;;;5122515;28;20434;-88
2021/09/02 11:04:03;;;;;;;7.67;6.97;;;23.40;97.50;;;;;;5103805;28;20602;-91
2021/09/02 11:06:47;;;;;;;6.80;6.30;;;23.80;96.60;;;;;;5103762;28;20425;-88
2021/09/02 11:09:33;;;;;;;7.00;6.40;;;24.10;95.50;;;;;;5108622;28;20749;-89
2021/09/02 11:12:03;;;;;;;7.43;6.83;;;23.80;95.80;;;;;;5099718;28;20402;-89
2021/09/02 11:14:30;;;;;;;7.17;6.57;;;23.40;97.00;;;;;;5088004;28;20427;-88
2021/09/02 11:17:05;;;;;;;6.43;6.03;;;23.20;98.00;;;;;;5103122;28;20501;-90
2021/09/02 11:19:34;;;;;;;7.47;6.87;;;22.90;97.90;;;;;;5116616;28;20638;-89
2021/09/02 11:22:11;;;;;;;7.13;6.57;;;23.10;97.50;;;;;;5101780;28;20510;-89
2021/09/02 11:24:46;;;;;;;6.93;6.40;;;23.50;95.70;;;;;;5100562;28;20444;-91
2021/09/02 11:27:29;;;;;;;14.17;12.80;;;23.60;95.30;;;;;;5120461;28;21249;-88
2021/09/02 11:30:16;;;;;;;6.50;6.00;;;23.80;94.90;;;;;;5122327;28;20452;-89
2021/09/02 11:32:50;;;;;;;7.27;6.67;;;23.60;95.50;;;;;;5119089;28;20459;-90
2021/09/02 11:35:17;;;;;;;6.50;6.00;;;23.10;96.30;;;;;;5111416;28;20436;-88
2021/09/02 11:37:45;;;;;;;6.80;6.20;;;22.80;95.90;;;;;;5110746;28;20442;-94
2021/09/02 11:40:33;;;;;;;6.70;6.20;;;22.80;96.80;;;;;;5114998;28;20445;-88
2021/09/02 11:43:03;;;;;;;6.33;5.90;;;22.70;96.30;;;;;;5121875;28;20734;-87
2021/09/02 11:45:32;;;;;;;6.40;5.90;;;22.80;96.10;;;;;;5103898;28;20794;-89
2021/09/02 11:48:06;;;;;;;7.00;6.30;;;22.70;95.20;;;;;;5111666;28;20615;-89
2021/09/02 11:50:34;;;;;;;7.00;6.50;;;22.70;95.90;;;;;;5123949;28;20430;-89
2021/09/02 11:53:02;;;;;;;6.43;5.90;;;22.80;95.80;;;;;;5099345;28;20613;-90
2021/09/02 11:55:31;;;;;;;7.10;6.50;;;23.00;95.90;;;;;;5093235;28;20414;-89
2021/09/02 11:58:01;;;;;;;5.57;5.10;;;23.10;95.10;;;;;;5092437;28;20423;-90
2021/09/02 12:00:30;;;;;;;6.70;6.10;;;23.10;95.40;;;;;;5095123;28;20434;-89
2021/09/02 12:02:59;;;;;;;6.60;6.20;;;23.30;95.00;;;;;;5109424;28;20985;-88
2021/09/02 12:05:36;;;;;;;6.47;6.07;;;23.40;94.70;;;;;;5122840;28;20642;-89
2021/09/02 12:08:07;;;;;;;6.33;5.73;;;23.50;94.00;;;;;;5102140;28;20434;-88
2021/09/02 12:10:35;;;;;;;7.03;6.50;;;23.60;95.20;;;;;;5120051;28;20430;-89
2021/09/02 12:13:26;;;;;;;7.17;6.57;;;23.30;95.40;;;;;;5097947;28;20460;-90
2021/09/02 12:16:06;;;;;;;6.23;5.73;;;23.10;95.50;;;;;;5120945;28;20418;-90
2021/09/02 12:18:35;;;;;;;6.33;5.90;;;23.00;94.90;;;;;;5097680;28;20433;-91
2021/09/02 12:21:14;;;;;;;6.50;6.00;;;22.90;93.90;;;;;;5107141;28;20497;-87
2021/09/02 12:23:53;;;;;;;5.80;5.37;;;22.80;93.40;;;;;;5099877;28;20478;-90
2021/09/02 12:26:22;;;;;;;6.80;6.40;;;22.60;93.00;;;;;;5088459;28;20413;-87
2021/09/02 12:28:53;;;;;;;10.73;7.63;;;22.70;94.50;;;;;;5103963;28;20501;-86
2021/09/02 12:31:27;;;;;;;6.83;6.43;;;22.90;95.00;;;;;;5122144;28;20759;-89
2021/09/02 12:34:04;;;;;;;6.83;6.43;;;22.90;95.60;;;;;;5120469;28;20445;-91
2021/09/02 12:36:34;;;;;;;7.53;6.90;;;22.90;95.60;;;;;;5122986;28;20450;-91
2021/09/02 12:39:14;;;;;;;7.53;6.90;;;23.10;95.70;;;;;;5122846;28;20422;-89
2021/09/02 12:41:45;;;;;;;7.63;6.67;;;23.20;94.90;;;;;;5104833;28;20495;-94
2021/09/02 12:44:20;;;;;;;7.67;7.07;;;23.00;93.40;;;;;;5118721;28;20709;-88
2021/09/02 12:46:53;;;;;;;7.73;7.03;;;22.80;93.70;;;;;;5096313;28;20437;-88